sensor_id;sensor_type;location;lat;lon;timestamp;P1;durP1;ratioP1;P2;durP2;ratioP2
38479;SDS011;62333;51.980;5.934;2023-02-16T00:00:48;34.30;;;22.08;;
38479;SDS011;62333;51.980;5.934;2023-02-16T00:03:18;33.28;;;20.98;;
38479;SDS011;62333;51.980;5.934;2023-02-16T00:05:46;31.85;;;21.33;;
38479;SDS011;62333;51.980;5.934;2023-02-16T00:08:12;31.08;;;20.48;;
38479;SDS011;62333;51.980;5.934;2023-02-16T00:10:38;35.58;;;21.08;;
38479;SDS011;62333;51.980;5.934;2023-02-16T00:13:18;33.90;;;21.70;;
38479;SDS011;62333;51.980;5.934;2023-02-16T00:16:21;40.10;;;22.48;;
38479;SDS011;62333;51.980;5.934;2023-02-16T00:18:48;32.92;;;19.60;;
38479;SDS011;62333;51.980;5.934;2023-02-16T00:21:15;30.45;;;19.63;;
38479;SDS011;62333;51.980;5.934;2023-02-16T00:23:41;31.52;;;19.38;;
38479;SDS011;62333;51.980;5.934;2023-02-16T00:26:14;33.30;;;21.90;;
38479;SDS011;62333;51.980;5.934;2023-02-16T00:28:55;33.03;;;21.08;;
38479;SDS011;62333;51.980;5.934;2023-02-16T00:31:28;35.92;;;19.80;;
38479;SDS011;62333;51.980;5.934;2023-02-16T00:34:01;29.70;;;19.73;;
38479;SDS011;62333;51.980;5.934;2023-02-16T00:37:16;31.00;;;19.10;;
38479;SDS011;62333;51.980;5.934;2023-02-16T00:39:47;35.13;;;21.05;;
38479;SDS011;62333;51.980;5.934;2023-02-16T00:42:25;35.67;;;20.90;;
38479;SDS011;62333;51.980;5.934;2023-02-16T00:45:35;31.55;;;21.33;;
38479;SDS011;62333;51.980;5.934;2023-02-16T00:48:07;34.75;;;22.00;;
38479;SDS011;62333;51.980;5.934;2023-02-16T00:50:42;32.97;;;21.65;;
38479;SDS011;62333;51.980;5.934;2023-02-16T00:53:17;34.15;;;21.55;;
38479;SDS011;62333;51.980;5.934;2023-02-16T00:55:42;37.67;;;23.25;;
38479;SDS011;62333;51.980;5.934;2023-02-16T00:58:22;33.28;;;21.00;;
38479;SDS011;62333;51.980;5.934;2023-02-16T01:01:01;31.33;;;19.42;;
38479;SDS011;62333;51.980;5.934;2023-02-16T01:03:40;31.92;;;20.27;;
38479;SDS011;62333;51.980;5.934;2023-02-16T01:06:24;31.70;;;19.27;;
38479;SDS011;62333;51.980;5.934;2023-02-16T01:09:28;32.45;;;20.98;;
38479;SDS011;62333;51.980;5.934;2023-02-16T01:12:24;37.60;;;24.33;;
38479;SDS011;62333;51.980;5.934;2023-02-16T01:14:53;33.72;;;19.60;;
38479;SDS011;62333;51.980;5.934;2023-02-16T01:17:22;33.35;;;22.25;;
38479;SDS011;62333;51.980;5.934;2023-02-16T01:19:51;42.05;;;23.20;;
38479;SDS011;62333;51.980;5.934;2023-02-16T01:22:21;37.55;;;20.38;;
38479;SDS011;62333;51.980;5.934;2023-02-16T01:25:15;33.50;;;23.20;;
38479;SDS011;62333;51.980;5.934;2023-02-16T01:27:41;30.88;;;19.38;;
38479;SDS011;62333;51.980;5.934;2023-02-16T01:30:20;38.13;;;19.17;;
38479;SDS011;62333;51.980;5.934;2023-02-16T01:32:51;33.15;;;22.02;;
38479;SDS011;62333;51.980;5.934;2023-02-16T01:35:18;33.38;;;20.63;;
38479;SDS011;62333;51.980;5.934;2023-02-16T01:37:54;34.47;;;21.58;;
38479;SDS011;62333;51.980;5.934;2023-02-16T01:40:44;28.33;;;20.52;;
38479;SDS011;62333;51.980;5.934;2023-02-16T01:46:15;33.78;;;20.58;;
38479;SDS011;62333;51.980;5.934;2023-02-16T01:49:03;34.53;;;21.73;;
38479;SDS011;62333;51.980;5.934;2023-02-16T01:51:33;32.95;;;20.27;;
38479;SDS011;62333;51.980;5.934;2023-02-16T01:54:49;39.08;;;23.70;;
38479;SDS011;62333;51.980;5.934;2023-02-16T01:57:49;35.30;;;21.23;;
38479;SDS011;62333;51.980;5.934;2023-02-16T02:09:36;34.25;;;18.98;;
38479;SDS011;62333;51.980;5.934;2023-02-16T02:15:34;32.08;;;19.08;;
38479;SDS011;62333;51.980;5.934;2023-02-16T02:44:17;32.80;;;19.75;;
38479;SDS011;62333;51.980;5.934;2023-02-16T02:46:50;35.58;;;22.13;;
38479;SDS011;62333;51.980;5.934;2023-02-16T02:49:27;39.17;;;25.90;;
38479;SDS011;62333;51.980;5.934;2023-02-16T02:51:53;36.55;;;22.40;;
38479;SDS011;62333;51.980;5.934;2023-02-16T03:00:09;33.65;;;19.38;;
38479;SDS011;62333;51.980;5.934;2023-02-16T03:08:34;31.13;;;19.98;;
38479;SDS011;62333;51.980;5.934;2023-02-16T03:11:05;30.85;;;20.98;;
38479;SDS011;62333;51.980;5.934;2023-02-16T03:13:57;38.67;;;22.90;;
38479;SDS011;62333;51.980;5.934;2023-02-16T03:16:33;37.28;;;22.95;;
38479;SDS011;62333;51.980;5.934;2023-02-16T03:19:06;36.72;;;22.00;;
38479;SDS011;62333;51.980;5.934;2023-02-16T03:21:54;33.78;;;21.38;;
38479;SDS011;62333;51.980;5.934;2023-02-16T03:24:41;34.13;;;20.27;;
38479;SDS011;62333;51.980;5.934;2023-02-16T03:27:36;36.95;;;23.70;;
38479;SDS011;62333;51.980;5.934;2023-02-16T03:30:24;36.58;;;22.83;;
38479;SDS011;62333;51.980;5.934;2023-02-16T03:32:51;35.05;;;21.58;;
38479;SDS011;62333;51.980;5.934;2023-02-16T03:35:18;32.40;;;20.63;;
38479;SDS011;62333;51.980;5.934;2023-02-16T03:37:44;32.05;;;19.30;;
38479;SDS011;62333;51.980;5.934;2023-02-16T03:40:11;34.60;;;20.30;;
38479;SDS011;62333;51.980;5.934;2023-02-16T03:42:52;31.10;;;19.75;;
38479;SDS011;62333;51.980;5.934;2023-02-16T03:45:20;26.83;;;19.13;;
38479;SDS011;62333;51.980;5.934;2023-02-16T03:47:46;29.50;;;20.38;;
38479;SDS011;62333;51.980;5.934;2023-02-16T03:50:12;31.38;;;19.85;;
38479;SDS011;62333;51.980;5.934;2023-02-16T03:52:37;33.90;;;19.85;;
38479;SDS011;62333;51.980;5.934;2023-02-16T03:55:03;31.08;;;17.92;;
38479;SDS011;62333;51.980;5.934;2023-02-16T03:57:29;33.08;;;20.38;;
38479;SDS011;62333;51.980;5.934;2023-02-16T03:59:55;31.90;;;19.70;;
38479;SDS011;62333;51.980;5.934;2023-02-16T04:02:20;29.73;;;20.77;;
38479;SDS011;62333;51.980;5.934;2023-02-16T04:04:46;29.20;;;18.20;;
38479;SDS011;62333;51.980;5.934;2023-02-16T04:07:11;26.33;;;17.73;;
38479;SDS011;62333;51.980;5.934;2023-02-16T04:09:37;27.48;;;18.17;;
38479;SDS011;62333;51.980;5.934;2023-02-16T04:12:03;28.83;;;18.45;;
38479;SDS011;62333;51.980;5.934;2023-02-16T04:14:47;32.38;;;21.80;;
38479;SDS011;62333;51.980;5.934;2023-02-16T04:17:13;33.88;;;20.35;;
38479;SDS011;62333;51.980;5.934;2023-02-16T04:19:39;35.10;;;20.50;;
38479;SDS011;62333;51.980;5.934;2023-02-16T04:22:04;33.45;;;21.90;;
38479;SDS011;62333;51.980;5.934;2023-02-16T04:24:30;34.30;;;20.73;;
38479;SDS011;62333;51.980;5.934;2023-02-16T04:26:55;30.05;;;20.40;;
38479;SDS011;62333;51.980;5.934;2023-02-16T04:29:21;33.38;;;19.90;;
38479;SDS011;62333;51.980;5.934;2023-02-16T04:31:47;28.08;;;17.65;;
38479;SDS011;62333;51.980;5.934;2023-02-16T04:34:13;31.63;;;19.65;;
38479;SDS011;62333;51.980;5.934;2023-02-16T04:36:39;27.95;;;19.13;;
38479;SDS011;62333;51.980;5.934;2023-02-16T04:39:05;28.30;;;18.27;;
38479;SDS011;62333;51.980;5.934;2023-02-16T04:41:31;32.00;;;19.25;;
38479;SDS011;62333;51.980;5.934;2023-02-16T04:43:56;31.50;;;20.00;;
38479;SDS011;62333;51.980;5.934;2023-02-16T04:46:22;33.80;;;22.40;;
38479;SDS011;62333;51.980;5.934;2023-02-16T04:48:48;31.88;;;19.45;;
38479;SDS011;62333;51.980;5.934;2023-02-16T04:51:13;35.25;;;22.63;;
38479;SDS011;62333;51.980;5.934;2023-02-16T04:53:39;36.60;;;22.30;;
38479;SDS011;62333;51.980;5.934;2023-02-16T04:56:08;37.50;;;20.90;;
38479;SDS011;62333;51.980;5.934;2023-02-16T04:58:34;33.50;;;21.65;;
38479;SDS011;62333;51.980;5.934;2023-02-16T05:01:00;39.35;;;23.30;;
38479;SDS011;62333;51.980;5.934;2023-02-16T05:03:26;40.05;;;22.83;;
38479;SDS011;62333;51.980;5.934;2023-02-16T05:05:52;34.85;;;22.70;;
38479;SDS011;62333;51.980;5.934;2023-02-16T05:08:17;43.42;;;24.73;;
38479;SDS011;62333;51.980;5.934;2023-02-16T05:10:43;40.75;;;24.75;;
38479;SDS011;62333;51.980;5.934;2023-02-16T05:13:11;42.28;;;23.75;;
38479;SDS011;62333;51.980;5.934;2023-02-16T05:15:55;37.70;;;24.85;;
38479;SDS011;62333;51.980;5.934;2023-02-16T05:18:21;36.97;;;23.20;;
38479;SDS011;62333;51.980;5.934;2023-02-16T05:20:47;40.45;;;25.00;;
38479;SDS011;62333;51.980;5.934;2023-02-16T05:23:31;36.97;;;22.88;;
38479;SDS011;62333;51.980;5.934;2023-02-16T05:25:56;39.92;;;24.38;;
38479;SDS011;62333;51.980;5.934;2023-02-16T05:28:22;31.95;;;20.08;;
38479;SDS011;62333;51.980;5.934;2023-02-16T05:30:47;39.40;;;23.30;;
38479;SDS011;62333;51.980;5.934;2023-02-16T05:33:13;38.25;;;23.80;;
38479;SDS011;62333;51.980;5.934;2023-02-16T05:35:39;41.20;;;24.38;;
38479;SDS011;62333;51.980;5.934;2023-02-16T05:38:04;39.88;;;24.08;;
38479;SDS011;62333;51.980;5.934;2023-02-16T05:40:30;36.55;;;22.63;;
38479;SDS011;62333;51.980;5.934;2023-02-16T05:42:56;39.92;;;23.70;;
38479;SDS011;62333;51.980;5.934;2023-02-16T05:45:21;40.70;;;23.00;;
38479;SDS011;62333;51.980;5.934;2023-02-16T05:47:47;36.17;;;22.25;;
38479;SDS011;62333;51.980;5.934;2023-02-16T05:50:13;33.58;;;22.88;;
38479;SDS011;62333;51.980;5.934;2023-02-16T05:52:38;42.70;;;30.23;;
38479;SDS011;62333;51.980;5.934;2023-02-16T05:55:04;43.58;;;26.23;;
38479;SDS011;62333;51.980;5.934;2023-02-16T05:57:30;37.03;;;24.58;;
38479;SDS011;62333;51.980;5.934;2023-02-16T05:59:58;39.40;;;23.85;;
38479;SDS011;62333;51.980;5.934;2023-02-16T06:02:24;38.95;;;25.67;;
38479;SDS011;62333;51.980;5.934;2023-02-16T06:04:50;32.17;;;21.15;;
38479;SDS011;62333;51.980;5.934;2023-02-16T06:07:15;38.10;;;24.52;;
38479;SDS011;62333;51.980;5.934;2023-02-16T06:09:41;36.83;;;23.65;;
38479;SDS011;62333;51.980;5.934;2023-02-16T06:12:07;39.08;;;25.70;;
38479;SDS011;62333;51.980;5.934;2023-02-16T06:14:32;43.28;;;27.83;;
38479;SDS011;62333;51.980;5.934;2023-02-16T06:16:58;40.88;;;25.17;;
38479;SDS011;62333;51.980;5.934;2023-02-16T06:19:25;42.25;;;24.83;;
38479;SDS011;62333;51.980;5.934;2023-02-16T06:21:51;41.95;;;28.00;;
38479;SDS011;62333;51.980;5.934;2023-02-16T06:24:16;43.38;;;25.13;;
38479;SDS011;62333;51.980;5.934;2023-02-16T06:26:42;39.50;;;25.55;;
38479;SDS011;62333;51.980;5.934;2023-02-16T06:29:08;39.63;;;25.30;;
38479;SDS011;62333;51.980;5.934;2023-02-16T06:31:34;39.58;;;22.40;;
38479;SDS011;62333;51.980;5.934;2023-02-16T06:34:00;42.53;;;25.92;;
38479;SDS011;62333;51.980;5.934;2023-02-16T06:36:27;40.03;;;24.95;;
38479;SDS011;62333;51.980;5.934;2023-02-16T06:38:53;36.58;;;22.63;;
38479;SDS011;62333;51.980;5.934;2023-02-16T06:41:19;44.25;;;27.05;;
38479;SDS011;62333;51.980;5.934;2023-02-16T06:43:59;38.75;;;24.63;;
38479;SDS011;62333;51.980;5.934;2023-02-16T06:46:26;39.03;;;24.42;;
38479;SDS011;62333;51.980;5.934;2023-02-16T06:48:54;42.70;;;27.05;;
38479;SDS011;62333;51.980;5.934;2023-02-16T06:51:20;45.50;;;25.75;;
38479;SDS011;62333;51.980;5.934;2023-02-16T06:53:46;43.22;;;25.92;;
38479;SDS011;62333;51.980;5.934;2023-02-16T06:56:12;39.88;;;24.77;;
38479;SDS011;62333;51.980;5.934;2023-02-16T06:58:38;41.40;;;25.40;;
38479;SDS011;62333;51.980;5.934;2023-02-16T07:01:04;44.08;;;28.13;;
38479;SDS011;62333;51.980;5.934;2023-02-16T07:03:29;39.97;;;25.52;;
38479;SDS011;62333;51.980;5.934;2023-02-16T07:05:55;42.83;;;28.20;;
38479;SDS011;62333;51.980;5.934;2023-02-16T07:08:24;44.03;;;28.85;;
38479;SDS011;62333;51.980;5.934;2023-02-16T07:10:50;43.50;;;26.73;;
38479;SDS011;62333;51.980;5.934;2023-02-16T07:13:17;43.85;;;27.70;;
38479;SDS011;62333;51.980;5.934;2023-02-16T07:15:43;39.92;;;25.05;;
38479;SDS011;62333;51.980;5.934;2023-02-16T07:18:08;42.42;;;25.38;;
38479;SDS011;62333;51.980;5.934;2023-02-16T07:20:34;38.28;;;24.63;;
38479;SDS011;62333;51.980;5.934;2023-02-16T07:23:00;41.55;;;25.60;;
38479;SDS011;62333;51.980;5.934;2023-02-16T07:25:25;36.17;;;24.13;;
38479;SDS011;62333;51.980;5.934;2023-02-16T07:27:51;40.78;;;24.60;;
38479;SDS011;62333;51.980;5.934;2023-02-16T07:30:18;39.75;;;24.80;;
38479;SDS011;62333;51.980;5.934;2023-02-16T07:32:45;37.40;;;25.05;;
38479;SDS011;62333;51.980;5.934;2023-02-16T07:35:11;50.55;;;28.52;;
38479;SDS011;62333;51.980;5.934;2023-02-16T07:37:37;44.13;;;26.45;;
38479;SDS011;62333;51.980;5.934;2023-02-16T07:40:02;43.70;;;25.38;;
38479;SDS011;62333;51.980;5.934;2023-02-16T07:42:29;40.38;;;26.23;;
38479;SDS011;62333;51.980;5.934;2023-02-16T07:44:55;37.78;;;24.63;;
38479;SDS011;62333;51.980;5.934;2023-02-16T07:47:21;37.45;;;23.70;;
38479;SDS011;62333;51.980;5.934;2023-02-16T07:49:47;38.08;;;24.50;;
38479;SDS011;62333;51.980;5.934;2023-02-16T07:52:12;36.47;;;22.40;;
38479;SDS011;62333;51.980;5.934;2023-02-16T07:54:38;35.45;;;22.90;;
38479;SDS011;62333;51.980;5.934;2023-02-16T07:57:04;34.50;;;22.20;;
38479;SDS011;62333;51.980;5.934;2023-02-16T07:59:30;35.92;;;23.58;;
38479;SDS011;62333;51.980;5.934;2023-02-16T08:01:55;34.80;;;23.30;;
38479;SDS011;62333;51.980;5.934;2023-02-16T08:04:21;35.13;;;24.52;;
38479;SDS011;62333;51.980;5.934;2023-02-16T08:06:47;41.85;;;25.85;;
38479;SDS011;62333;51.980;5.934;2023-02-16T08:09:13;39.90;;;26.60;;
38479;SDS011;62333;51.980;5.934;2023-02-16T08:11:39;44.28;;;28.30;;
38479;SDS011;62333;51.980;5.934;2023-02-16T08:14:05;41.60;;;25.83;;
38479;SDS011;62333;51.980;5.934;2023-02-16T08:16:31;38.00;;;25.10;;
38479;SDS011;62333;51.980;5.934;2023-02-16T08:18:57;42.00;;;25.10;;
38479;SDS011;62333;51.980;5.934;2023-02-16T08:21:26;46.10;;;27.13;;
38479;SDS011;62333;51.980;5.934;2023-02-16T08:24:04;35.80;;;23.73;;
38479;SDS011;62333;51.980;5.934;2023-02-16T08:26:33;39.53;;;24.73;;
38479;SDS011;62333;51.980;5.934;2023-02-16T08:29:01;34.40;;;25.17;;
38479;SDS011;62333;51.980;5.934;2023-02-16T08:31:28;43.40;;;26.30;;
38479;SDS011;62333;51.980;5.934;2023-02-16T08:33:55;44.38;;;28.58;;
38479;SDS011;62333;51.980;5.934;2023-02-16T08:38:50;46.08;;;28.77;;
38479;SDS011;62333;51.980;5.934;2023-02-16T08:41:18;45.25;;;28.23;;
38479;SDS011;62333;51.980;5.934;2023-02-16T08:43:45;44.00;;;28.40;;
38479;SDS011;62333;51.980;5.934;2023-02-16T08:46:12;45.30;;;29.85;;
38479;SDS011;62333;51.980;5.934;2023-02-16T08:48:38;40.58;;;27.15;;
38479;SDS011;62333;51.980;5.934;2023-02-16T08:51:04;41.13;;;26.98;;
38479;SDS011;62333;51.980;5.934;2023-02-16T08:53:32;43.25;;;26.13;;
38479;SDS011;62333;51.980;5.934;2023-02-16T08:55:59;39.40;;;26.75;;
38479;SDS011;62333;51.980;5.934;2023-02-16T09:06:05;35.10;;;23.52;;
38479;SDS011;62333;51.980;5.934;2023-02-16T09:08:31;39.58;;;25.02;;
38479;SDS011;62333;51.980;5.934;2023-02-16T09:11:01;36.05;;;23.50;;
38479;SDS011;62333;51.980;5.934;2023-02-16T09:13:27;39.47;;;24.30;;
38479;SDS011;62333;51.980;5.934;2023-02-16T09:15:53;35.60;;;25.02;;
38479;SDS011;62333;51.980;5.934;2023-02-16T09:18:19;40.33;;;26.63;;
38479;SDS011;62333;51.980;5.934;2023-02-16T09:20:45;41.47;;;26.50;;
38479;SDS011;62333;51.980;5.934;2023-02-16T09:23:11;31.27;;;22.48;;
38479;SDS011;62333;51.980;5.934;2023-02-16T09:25:37;38.78;;;24.40;;
38479;SDS011;62333;51.980;5.934;2023-02-16T09:28:05;37.95;;;22.33;;
38479;SDS011;62333;51.980;5.934;2023-02-16T09:30:33;33.83;;;21.40;;
38479;SDS011;62333;51.980;5.934;2023-02-16T09:33:02;36.38;;;24.27;;
38479;SDS011;62333;51.980;5.934;2023-02-16T09:35:27;34.97;;;23.58;;
38479;SDS011;62333;51.980;5.934;2023-02-16T09:37:53;40.90;;;25.77;;
38479;SDS011;62333;51.980;5.934;2023-02-16T09:40:19;32.42;;;21.98;;
38479;SDS011;62333;51.980;5.934;2023-02-16T09:45:14;37.40;;;21.85;;
38479;SDS011;62333;51.980;5.934;2023-02-16T09:47:42;33.60;;;22.38;;
38479;SDS011;62333;51.980;5.934;2023-02-16T09:50:20;37.17;;;23.95;;
38479;SDS011;62333;51.980;5.934;2023-02-16T09:55:16;32.67;;;22.33;;
38479;SDS011;62333;51.980;5.934;2023-02-16T09:57:53;39.38;;;26.25;;
38479;SDS011;62333;51.980;5.934;2023-02-16T10:05:42;36.58;;;23.08;;
38479;SDS011;62333;51.980;5.934;2023-02-16T10:08:20;33.75;;;23.52;;
38479;SDS011;62333;51.980;5.934;2023-02-16T10:17:05;37.13;;;26.08;;
38479;SDS011;62333;51.980;5.934;2023-02-16T10:19:41;34.47;;;23.05;;
38479;SDS011;62333;51.980;5.934;2023-02-16T10:22:15;39.33;;;25.33;;
38479;SDS011;62333;51.980;5.934;2023-02-16T10:24:56;37.30;;;26.08;;
38479;SDS011;62333;51.980;5.934;2023-02-16T10:27:37;42.83;;;27.20;;
38479;SDS011;62333;51.980;5.934;2023-02-16T10:30:14;35.65;;;22.75;;
38479;SDS011;62333;51.980;5.934;2023-02-16T10:35:31;34.10;;;23.60;;
38479;SDS011;62333;51.980;5.934;2023-02-16T10:38:13;33.00;;;22.95;;
38479;SDS011;62333;51.980;5.934;2023-02-16T10:43:34;40.58;;;26.45;;
38479;SDS011;62333;51.980;5.934;2023-02-16T10:46:02;36.20;;;25.73;;
38479;SDS011;62333;51.980;5.934;2023-02-16T10:48:30;37.22;;;23.95;;
38479;SDS011;62333;51.980;5.934;2023-02-16T10:53:35;42.35;;;26.00;;
38479;SDS011;62333;51.980;5.934;2023-02-16T10:58:45;32.15;;;21.25;;
38479;SDS011;62333;51.980;5.934;2023-02-16T11:01:16;37.97;;;25.50;;
38479;SDS011;62333;51.980;5.934;2023-02-16T11:03:45;42.45;;;29.48;;
38479;SDS011;62333;51.980;5.934;2023-02-16T11:06:23;36.00;;;24.17;;
38479;SDS011;62333;51.980;5.934;2023-02-16T11:08:57;37.83;;;25.13;;
38479;SDS011;62333;51.980;5.934;2023-02-16T11:11:34;38.58;;;22.77;;
38479;SDS011;62333;51.980;5.934;2023-02-16T11:14:02;39.88;;;26.00;;
38479;SDS011;62333;51.980;5.934;2023-02-16T11:16:29;35.63;;;24.52;;
38479;SDS011;62333;51.980;5.934;2023-02-16T11:18:59;37.47;;;26.33;;
38479;SDS011;62333;51.980;5.934;2023-02-16T11:24:30;33.00;;;22.67;;
38479;SDS011;62333;51.980;5.934;2023-02-16T11:29:43;32.33;;;23.02;;
38479;SDS011;62333;51.980;5.934;2023-02-16T11:32:12;34.22;;;23.95;;
38479;SDS011;62333;51.980;5.934;2023-02-16T11:34:46;35.45;;;24.70;;
38479;SDS011;62333;51.980;5.934;2023-02-16T11:40:17;33.58;;;22.30;;
38479;SDS011;62333;51.980;5.934;2023-02-16T11:42:47;30.67;;;21.75;;
38479;SDS011;62333;51.980;5.934;2023-02-16T11:47:55;35.58;;;22.40;;
38479;SDS011;62333;51.980;5.934;2023-02-16T11:50:31;28.25;;;20.77;;
38479;SDS011;62333;51.980;5.934;2023-02-16T11:53:15;34.80;;;25.10;;
38479;SDS011;62333;51.980;5.934;2023-02-16T11:55:47;31.63;;;20.42;;
38479;SDS011;62333;51.980;5.934;2023-02-16T11:58:22;39.88;;;27.75;;
38479;SDS011;62333;51.980;5.934;2023-02-16T12:09:37;47.63;;;28.10;;
38479;SDS011;62333;51.980;5.934;2023-02-16T12:12:32;36.53;;;24.92;;
38479;SDS011;62333;51.980;5.934;2023-02-16T12:17:43;33.45;;;21.92;;
38479;SDS011;62333;51.980;5.934;2023-02-16T12:20:35;42.97;;;24.47;;
38479;SDS011;62333;51.980;5.934;2023-02-16T12:26:12;40.47;;;27.73;;
38479;SDS011;62333;51.980;5.934;2023-02-16T12:34:42;34.70;;;25.63;;
38479;SDS011;62333;51.980;5.934;2023-02-16T12:40:06;39.90;;;28.90;;
38479;SDS011;62333;51.980;5.934;2023-02-16T12:45:13;38.92;;;26.25;;
38479;SDS011;62333;51.980;5.934;2023-02-16T12:47:45;41.53;;;29.00;;
38479;SDS011;62333;51.980;5.934;2023-02-16T12:50:23;36.53;;;25.98;;
38479;SDS011;62333;51.980;5.934;2023-02-16T12:52:56;35.95;;;25.88;;
38479;SDS011;62333;51.980;5.934;2023-02-16T13:00:51;43.83;;;30.67;;
38479;SDS011;62333;51.980;5.934;2023-02-16T13:14:19;46.45;;;31.23;;
38479;SDS011;62333;51.980;5.934;2023-02-16T13:16:48;45.58;;;31.15;;
38479;SDS011;62333;51.980;5.934;2023-02-16T13:19:17;38.60;;;27.17;;
38479;SDS011;62333;51.980;5.934;2023-02-16T13:32:59;42.72;;;30.65;;
38479;SDS011;62333;51.980;5.934;2023-02-16T13:35:38;37.80;;;25.25;;
38479;SDS011;62333;51.980;5.934;2023-02-16T13:44:14;39.50;;;21.83;;
38479;SDS011;62333;51.980;5.934;2023-02-16T13:46:50;37.58;;;26.52;;
38479;SDS011;62333;51.980;5.934;2023-02-16T13:49:51;28.35;;;18.25;;
38479;SDS011;62333;51.980;5.934;2023-02-16T13:52:24;34.55;;;24.10;;
38479;SDS011;62333;51.980;5.934;2023-02-16T13:55:02;38.42;;;25.20;;
38479;SDS011;62333;51.980;5.934;2023-02-16T14:05:44;37.00;;;27.20;;
38479;SDS011;62333;51.980;5.934;2023-02-16T14:08:22;30.17;;;22.60;;
38479;SDS011;62333;51.980;5.934;2023-02-16T14:13:28;35.88;;;25.95;;
38479;SDS011;62333;51.980;5.934;2023-02-16T14:18:42;33.83;;;23.58;;
38479;SDS011;62333;51.980;5.934;2023-02-16T14:21:25;33.42;;;25.73;;
38479;SDS011;62333;51.980;5.934;2023-02-16T14:24:12;31.48;;;23.45;;
38479;SDS011;62333;51.980;5.934;2023-02-16T14:26:55;38.38;;;24.85;;
38479;SDS011;62333;51.980;5.934;2023-02-16T14:29:29;32.70;;;23.08;;
38479;SDS011;62333;51.980;5.934;2023-02-16T14:34:56;30.67;;;22.63;;
38479;SDS011;62333;51.980;5.934;2023-02-16T14:43:39;31.05;;;20.60;;
38479;SDS011;62333;51.980;5.934;2023-02-16T15:02:33;34.75;;;23.23;;
38479;SDS011;62333;51.980;5.934;2023-02-16T15:05:15;28.48;;;20.55;;
38479;SDS011;62333;51.980;5.934;2023-02-16T15:07:43;29.98;;;19.15;;
38479;SDS011;62333;51.980;5.934;2023-02-16T15:10:14;25.05;;;18.27;;
38479;SDS011;62333;51.980;5.934;2023-02-16T15:12:45;21.92;;;15.50;;
38479;SDS011;62333;51.980;5.934;2023-02-16T15:15:17;26.77;;;18.88;;
38479;SDS011;62333;51.980;5.934;2023-02-16T15:17:46;26.30;;;17.75;;
38479;SDS011;62333;51.980;5.934;2023-02-16T15:20:28;27.58;;;18.95;;
38479;SDS011;62333;51.980;5.934;2023-02-16T15:25:24;37.90;;;22.73;;
38479;SDS011;62333;51.980;5.934;2023-02-16T15:30:56;23.80;;;17.97;;
38479;SDS011;62333;51.980;5.934;2023-02-16T15:33:27;25.23;;;17.67;;
38479;SDS011;62333;51.980;5.934;2023-02-16T15:36:01;23.65;;;16.50;;
38479;SDS011;62333;51.980;5.934;2023-02-16T15:38:33;25.05;;;18.30;;
38479;SDS011;62333;51.980;5.934;2023-02-16T15:41:02;19.90;;;13.30;;
38479;SDS011;62333;51.980;5.934;2023-02-16T15:43:37;24.58;;;15.30;;
38479;SDS011;62333;51.980;5.934;2023-02-16T15:46:13;18.60;;;13.70;;
38479;SDS011;62333;51.980;5.934;2023-02-16T15:48:47;20.30;;;14.40;;
38479;SDS011;62333;51.980;5.934;2023-02-16T15:53:54;17.92;;;13.52;;
38479;SDS011;62333;51.980;5.934;2023-02-16T15:58:50;20.35;;;12.55;;
38479;SDS011;62333;51.980;5.934;2023-02-16T16:01:24;19.35;;;13.57;;
38479;SDS011;62333;51.980;5.934;2023-02-16T16:03:57;17.42;;;10.95;;
38479;SDS011;62333;51.980;5.934;2023-02-16T16:06:24;25.73;;;15.88;;
38479;SDS011;62333;51.980;5.934;2023-02-16T16:08:57;21.15;;;13.65;;
38479;SDS011;62333;51.980;5.934;2023-02-16T16:11:23;21.02;;;14.98;;
38479;SDS011;62333;51.980;5.934;2023-02-16T16:13:49;21.00;;;14.18;;
38479;SDS011;62333;51.980;5.934;2023-02-16T16:16:15;20.45;;;13.73;;
38479;SDS011;62333;51.980;5.934;2023-02-16T16:21:12;23.75;;;14.27;;
38479;SDS011;62333;51.980;5.934;2023-02-16T16:23:51;23.70;;;16.42;;
38479;SDS011;62333;51.980;5.934;2023-02-16T16:26:25;22.40;;;14.68;;
38479;SDS011;62333;51.980;5.934;2023-02-16T16:28:52;19.52;;;13.07;;
38479;SDS011;62333;51.980;5.934;2023-02-16T16:36:26;19.38;;;12.60;;
38479;SDS011;62333;51.980;5.934;2023-02-16T16:38:55;22.92;;;13.65;;
38479;SDS011;62333;51.980;5.934;2023-02-16T16:41:41;21.55;;;14.70;;
38479;SDS011;62333;51.980;5.934;2023-02-16T16:44:28;21.27;;;14.77;;
38479;SDS011;62333;51.980;5.934;2023-02-16T16:49:54;17.63;;;12.45;;
38479;SDS011;62333;51.980;5.934;2023-02-16T16:52:34;18.15;;;12.65;;
38479;SDS011;62333;51.980;5.934;2023-02-16T16:57:43;23.15;;;14.57;;
38479;SDS011;62333;51.980;5.934;2023-02-16T17:00:09;22.23;;;14.52;;
38479;SDS011;62333;51.980;5.934;2023-02-16T17:02:35;17.45;;;13.45;;
38479;SDS011;62333;51.980;5.934;2023-02-16T17:05:02;23.13;;;16.42;;
38479;SDS011;62333;51.980;5.934;2023-02-16T17:07:28;19.05;;;13.27;;
38479;SDS011;62333;51.980;5.934;2023-02-16T17:09:53;23.42;;;13.80;;
38479;SDS011;62333;51.980;5.934;2023-02-16T17:12:19;21.83;;;13.88;;
38479;SDS011;62333;51.980;5.934;2023-02-16T17:14:46;30.02;;;16.85;;
38479;SDS011;62333;51.980;5.934;2023-02-16T17:17:12;17.88;;;13.43;;
38479;SDS011;62333;51.980;5.934;2023-02-16T17:19:38;24.85;;;18.23;;
38479;SDS011;62333;51.980;5.934;2023-02-16T17:22:16;27.95;;;19.55;;
38479;SDS011;62333;51.980;5.934;2023-02-16T17:24:44;29.30;;;19.55;;
38479;SDS011;62333;51.980;5.934;2023-02-16T17:27:10;29.67;;;19.65;;
38479;SDS011;62333;51.980;5.934;2023-02-16T17:29:36;28.85;;;20.92;;
38479;SDS011;62333;51.980;5.934;2023-02-16T17:32:02;27.50;;;20.10;;
38479;SDS011;62333;51.980;5.934;2023-02-16T17:34:28;31.13;;;22.02;;
38479;SDS011;62333;51.980;5.934;2023-02-16T17:36:58;34.67;;;23.67;;
38479;SDS011;62333;51.980;5.934;2023-02-16T17:39:27;26.33;;;19.25;;
38479;SDS011;62333;51.980;5.934;2023-02-16T17:41:55;25.60;;;19.27;;
38479;SDS011;62333;51.980;5.934;2023-02-16T17:44:21;23.42;;;18.58;;
38479;SDS011;62333;51.980;5.934;2023-02-16T17:46:46;22.33;;;16.67;;
38479;SDS011;62333;51.980;5.934;2023-02-16T17:49:12;30.85;;;20.38;;
38479;SDS011;62333;51.980;5.934;2023-02-16T17:51:38;27.23;;;18.20;;
38479;SDS011;62333;51.980;5.934;2023-02-16T17:54:04;27.55;;;19.77;;
38479;SDS011;62333;51.980;5.934;2023-02-16T17:56:34;32.65;;;21.65;;
38479;SDS011;62333;51.980;5.934;2023-02-16T17:59:01;30.77;;;20.95;;
38479;SDS011;62333;51.980;5.934;2023-02-16T18:01:27;29.40;;;21.83;;
38479;SDS011;62333;51.980;5.934;2023-02-16T18:03:53;31.42;;;21.15;;
38479;SDS011;62333;51.980;5.934;2023-02-16T18:06:20;26.00;;;19.33;;
38479;SDS011;62333;51.980;5.934;2023-02-16T18:08:48;21.92;;;17.05;;
38479;SDS011;62333;51.980;5.934;2023-02-16T18:11:14;25.17;;;19.48;;
38479;SDS011;62333;51.980;5.934;2023-02-16T18:13:40;24.70;;;16.92;;
38479;SDS011;62333;51.980;5.934;2023-02-16T18:16:06;23.42;;;16.20;;
38479;SDS011;62333;51.980;5.934;2023-02-16T18:18:32;29.27;;;21.38;;
38479;SDS011;62333;51.980;5.934;2023-02-16T18:21:01;35.72;;;21.60;;
38479;SDS011;62333;51.980;5.934;2023-02-16T18:23:26;27.08;;;18.42;;
38479;SDS011;62333;51.980;5.934;2023-02-16T18:25:52;27.25;;;20.17;;